Time;durP1;ratioP1;P1;durP2;ratioP2;P2;SDS_P1;SDS_P2;PMS_P1;PMS_P2;Temp;Humidity;BMP_temperature;BMP_pressure;BME280_temperature;BME280_humidity;BME280_pressure;Samples;Min_cycle;Max_cycle;Signal;HPM_P1;HPM_P2
2023/09/03 00:00:30;;;;;;;138.77;125.60;;;19.80;99.90;;;;;;5036411;28;20939;-82
2023/09/03 00:02:56;;;;;;;145.87;132.37;;;19.80;99.90;;;;;;5036832;28;20178;-82
2023/09/03 00:05:21;;;;;;;147.17;133.67;;;19.80;99.90;;;;;;5036607;28;20203;-82
2023/09/03 00:07:50;;;;;;;140.03;126.67;;;19.80;99.90;;;;;;5036293;28;20200;-82
2023/09/03 00:10:17;;;;;;;136.00;123.17;;;19.80;99.90;;;;;;5036489;28;20185;-84
2023/09/03 00:12:43;;;;;;;133.27;120.33;;;19.80;99.90;;;;;;5019661;28;20404;-82
2023/09/03 00:15:09;;;;;;;131.23;118.37;;;19.80;99.90;;;;;;5019077;28;20409;-82
2023/09/03 00:17:35;;;;;;;133.37;120.33;;;19.80;99.90;;;;;;5036127;28;20400;-81
2023/09/03 00:20:00;;;;;;;135.67;122.27;;;19.80;99.90;;;;;;5036300;28;20426;-83
2023/09/03 00:22:26;;;;;;;142.23;128.83;;;19.70;99.90;;;;;;5036851;28;20205;-83
2023/09/03 00:24:51;;;;;;;133.23;120.53;;;19.70;99.90;;;;;;5018500;28;20165;-82
2023/09/03 00:27:17;;;;;;;127.50;114.87;;;19.70;99.90;;;;;;5018815;28;20169;-84
2023/09/03 00:29:43;;;;;;;124.83;112.17;;;19.60;99.90;;;;;;5036373;28;20177;-84
2023/09/03 00:32:11;;;;;;;139.33;125.67;;;19.60;99.90;;;;;;5036778;28;20193;-84
2023/09/03 00:34:43;;;;;;;119.37;106.63;;;19.60;99.90;;;;;;5018503;28;20256;-84
2023/09/03 00:37:09;;;;;;;110.20;96.73;;;19.70;99.90;;;;;;5018603;28;20440;-82
2023/09/03 00:39:34;;;;;;;116.83;104.10;;;19.60;99.90;;;;;;5036433;28;20471;-82
2023/09/03 00:42:00;;;;;;;145.30;131.63;;;19.60;99.90;;;;;;5035869;28;20177;-82
2023/09/03 00:44:25;;;;;;;133.83;120.60;;;19.60;99.90;;;;;;5107253;22;20356;-81
2023/09/03 00:46:51;;;;;;;131.27;117.67;;;19.60;99.90;;;;;;5033151;28;20192;-80
2023/09/03 00:49:21;;;;;;;130.47;117.33;;;19.60;99.90;;;;;;5033281;28;20164;-81
2023/09/03 00:51:50;;;;;;;112.43;93.03;;;19.60;99.90;;;;;;5033295;28;20154;-80
2023/09/03 00:54:15;;;;;;;125.27;111.37;;;19.50;99.90;;;;;;5033194;28;20817;-81
2023/09/03 00:56:41;;;;;;;114.20;101.37;;;19.50;99.90;;;;;;5036600;28;20441;-81
2023/09/03 00:59:08;;;;;;;119.90;107.30;;;19.50;99.90;;;;;;5037312;28;20170;-81
2023/09/03 01:01:36;;;;;;;132.63;119.53;;;19.50;99.90;;;;;;5019322;28;20464;-81
2023/09/03 01:04:01;;;;;;;132.13;118.83;;;19.40;99.90;;;;;;5037139;28;20479;-81
2023/09/03 01:06:27;;;;;;;115.67;103.13;;;19.30;99.90;;;;;;5019152;28;20612;-81
2023/09/03 01:08:53;;;;;;;124.90;111.83;;;19.30;99.90;;;;;;5037521;28;20168;-80
2023/09/03 01:11:38;;;;;;;134.37;121.20;;;19.30;99.90;;;;;;5036907;28;20549;-80
2023/09/03 01:14:28;;;;;;;125.17;112.57;;;19.30;99.90;;;;;;5037021;28;20153;-81
2023/09/03 01:17:10;;;;;;;119.57;106.80;;;19.30;99.90;;;;;;5019146;28;20400;-80
2023/09/03 01:20:05;;;;;;;129.30;116.50;;;19.30;99.90;;;;;;5036827;28;20416;-80
2023/09/03 01:23:03;;;;;;;143.13;129.33;;;19.20;99.90;;;;;;5029403;28;20420;-80
2023/09/03 01:25:37;;;;;;;137.30;124.13;;;19.20;99.90;;;;;;5019124;28;20446;-80
2023/09/03 01:28:12;;;;;;;127.23;114.27;;;19.20;99.90;;;;;;5036889;28;20372;-80
2023/09/03 01:30:38;;;;;;;131.17;118.23;;;19.10;99.90;;;;;;5018946;28;20430;-80
2023/09/03 01:33:05;;;;;;;120.70;108.07;;;19.10;99.90;;;;;;5036680;28;20395;-80
2023/09/03 01:35:31;;;;;;;122.63;109.73;;;19.10;99.90;;;;;;5036597;28;20407;-80
2023/09/03 01:37:57;;;;;;;131.30;118.03;;;19.10;99.90;;;;;;5036786;28;20409;-80
2023/09/03 01:40:23;;;;;;;117.07;104.47;;;19.10;99.90;;;;;;5036783;28;20780;-80
2023/09/03 01:42:49;;;;;;;116.83;103.43;;;19.10;99.90;;;;;;5036741;28;20404;-80
2023/09/03 01:45:15;;;;;;;120.67;107.17;;;19.10;99.90;;;;;;5036255;28;20243;-80
2023/09/03 01:47:50;;;;;;;119.77;106.77;;;19.00;99.90;;;;;;5036621;28;20404;-80
2023/09/03 01:51:12;;;;;;;129.60;115.90;;;19.00;99.90;;;;;;5018380;28;20222;-80
2023/09/03 01:54:18;;;;;;;134.50;121.03;;;19.00;99.90;;;;;;4940422;29;20917;-80
2023/09/03 01:57:06;;;;;;;130.23;117.13;;;19.00;99.90;;;;;;4996196;28;20436;-80
2023/09/03 01:59:43;;;;;;;133.77;119.37;;;18.90;99.90;;;;;;5036041;28;20546;-80
2023/09/03 02:02:10;;;;;;;125.47;112.40;;;18.90;99.90;;;;;;5036029;28;20373;-80
2023/09/03 02:04:36;;;;;;;114.67;101.27;;;18.80;99.90;;;;;;5036127;28;20488;-80
2023/09/03 02:07:02;;;;;;;118.07;88.03;;;18.80;99.90;;;;;;5018341;28;20527;-80
2023/09/03 02:09:28;;;;;;;117.23;102.47;;;18.90;99.90;;;;;;5035860;28;20683;-80
2023/09/03 02:11:57;;;;;;;124.60;111.50;;;18.80;99.90;;;;;;5035917;28;20626;-80
2023/09/03 02:14:23;;;;;;;124.40;110.90;;;18.80;99.90;;;;;;5036270;28;20506;-80
2023/09/03 02:16:52;;;;;;;111.73;89.47;;;18.80;99.90;;;;;;5018281;28;20411;-80
2023/09/03 02:19:18;;;;;;;119.53;105.37;;;18.70;99.90;;;;;;5036152;28;20183;-80
2023/09/03 02:21:44;;;;;;;115.70;89.57;;;18.70;99.90;;;;;;5036046;28;20396;-80
2023/09/03 02:24:09;;;;;;;118.43;94.47;;;18.70;99.90;;;;;;5018177;28;20627;-80
2023/09/03 02:26:42;;;;;;;113.80;92.90;;;18.70;99.90;;;;;;5035794;28;20280;-80
2023/09/03 02:29:09;;;;;;;129.33;115.87;;;18.70;99.90;;;;;;5036070;28;20248;-80
2023/09/03 02:31:35;;;;;;;120.53;107.47;;;18.70;99.90;;;;;;5018784;28;20427;-80
2023/09/03 02:34:03;;;;;;;121.27;108.37;;;18.70;99.90;;;;;;5018232;28;20786;-80
2023/09/03 02:36:30;;;;;;;118.37;86.83;;;18.70;99.90;;;;;;5018032;28;20173;-80
2023/09/03 02:39:03;;;;;;;122.83;91.53;;;18.60;99.90;;;;;;5035785;28;20405;-80
2023/09/03 02:41:32;;;;;;;119.77;106.73;;;18.60;99.90;;;;;;5017574;28;20822;-80
2023/09/03 02:44:01;;;;;;;119.47;106.13;;;18.60;99.90;;;;;;5035239;28;20939;-80
2023/09/03 02:46:28;;;;;;;119.17;103.27;;;18.60;99.90;;;;;;5035519;28;20439;-80
2023/09/03 02:48:54;;;;;;;116.03;84.77;;;18.60;99.90;;;;;;5035360;28;20760;-80
2023/09/03 02:51:20;;;;;;;113.00;78.13;;;18.60;99.90;;;;;;5035282;28;20423;-80
2023/09/03 02:53:47;;;;;;;118.23;81.00;;;18.50;99.90;;;;;;5035302;28;20400;-80
2023/09/03 02:56:13;;;;;;;120.20;91.57;;;18.50;99.90;;;;;;5035529;28;20411;-80
2023/09/03 02:58:39;;;;;;;116.57;76.87;;;18.60;99.90;;;;;;5017715;28;20442;-80
2023/09/03 03:01:14;;;;;;;110.37;72.13;;;18.60;99.90;;;;;;5035245;28;20420;-80
2023/09/03 03:03:41;;;;;;;119.53;78.97;;;18.50;99.90;;;;;;5035285;28;20400;-80
2023/09/03 03:06:06;;;;;;;115.83;81.80;;;18.50;99.90;;;;;;5035171;28;20448;-80
2023/09/03 03:08:32;;;;;;;110.33;78.60;;;18.50;99.90;;;;;;5035040;28;20454;-80
2023/09/03 03:11:05;;;;;;;125.10;91.87;;;18.50;99.90;;;;;;5034951;28;20181;-80
2023/09/03 03:13:31;;;;;;;114.33;82.97;;;18.60;99.90;;;;;;5034970;28;20400;-80
2023/09/03 03:15:56;;;;;;;120.03;82.10;;;18.50;99.90;;;;;;5034865;28;20400;-80
2023/09/03 03:18:22;;;;;;;116.33;78.23;;;18.50;99.90;;;;;;5034692;28;20174;-80
2023/09/03 03:20:47;;;;;;;113.97;80.40;;;18.40;99.90;;;;;;5034816;28;20196;-80
2023/09/03 03:23:13;;;;;;;112.67;89.67;;;18.40;99.90;;;;;;5034698;28;20224;-80
2023/09/03 03:25:39;;;;;;;115.87;92.07;;;18.40;99.90;;;;;;5034813;28;20216;-80
2023/09/03 03:28:05;;;;;;;119.53;85.53;;;18.40;99.90;;;;;;5016954;28;20173;-80
2023/09/03 03:30:30;;;;;;;115.73;89.53;;;18.30;99.90;;;;;;5034591;28;20350;-80
2023/09/03 03:32:56;;;;;;;119.80;81.67;;;18.30;99.90;;;;;;5034669;28;20436;-80
2023/09/03 03:35:22;;;;;;;110.10;73.40;;;18.30;99.90;;;;;;5034740;28;20170;-80
2023/09/03 03:37:47;;;;;;;112.50;75.43;;;18.20;99.90;;;;;;5034579;28;20528;-80
2023/09/03 03:40:13;;;;;;;115.20;83.50;;;18.20;99.90;;;;;;5034598;28;20193;-80
2023/09/03 03:42:39;;;;;;;109.63;81.23;;;18.30;99.90;;;;;;5016719;28;20184;-80
2023/09/03 03:45:05;;;;;;;121.57;89.43;;;18.30;99.90;;;;;;5016811;28;20192;-80
2023/09/03 03:47:30;;;;;;;112.00;75.70;;;18.30;99.90;;;;;;5034729;28;20232;-80
2023/09/03 03:49:56;;;;;;;106.93;67.70;;;18.30;99.90;;;;;;5016543;28;20428;-80
2023/09/03 03:52:22;;;;;;;112.63;68.70;;;18.30;99.90;;;;;;5034581;28;20188;-80
2023/09/03 03:54:49;;;;;;;108.53;67.30;;;18.20;99.90;;;;;;5034712;28;20510;-80
2023/09/03 03:57:15;;;;;;;112.13;74.90;;;18.20;99.90;;;;;;5016500;28;20173;-80
2023/09/03 03:59:40;;;;;;;107.20;69.33;;;18.20;99.90;;;;;;5034183;28;20527;-80
2023/09/03 04:02:06;;;;;;;107.37;72.00;;;18.20;99.90;;;;;;5034136;28;20584;-80
2023/09/03 04:04:32;;;;;;;108.60;69.83;;;18.10;99.90;;;;;;5034235;28;20651;-80
2023/09/03 04:06:57;;;;;;;117.40;82.33;;;18.10;99.90;;;;;;5034054;28;20688;-80
2023/09/03 04:09:23;;;;;;;111.60;72.87;;;18.10;99.90;;;;;;5034024;28;20284;-80
2023/09/03 04:11:52;;;;;;;109.50;66.77;;;18.10;99.90;;;;;;5034383;28;20184;-80
2023/09/03 04:14:17;;;;;;;115.80;75.03;;;18.00;99.90;;;;;;5033905;28;20220;-80
2023/09/03 04:16:43;;;;;;;111.83;68.50;;;18.00;99.90;;;;;;5034252;28;20439;-80
2023/09/03 04:19:09;;;;;;;117.97;75.60;;;18.00;99.90;;;;;;5034305;28;20180;-80
2023/09/03 04:21:34;;;;;;;118.43;82.57;;;18.00;99.90;;;;;;5033967;28;20560;-80
2023/09/03 04:24:00;;;;;;;106.97;66.43;;;17.90;99.90;;;;;;5034608;28;20177;-80
2023/09/03 04:26:26;;;;;;;111.53;71.27;;;18.00;99.90;;;;;;5034403;28;20212;-80
2023/09/03 04:28:51;;;;;;;109.97;71.53;;;18.00;99.90;;;;;;5034105;28;20557;-80
2023/09/03 04:31:17;;;;;;;112.53;72.67;;;18.00;99.90;;;;;;5032899;28;20684;-80
2023/09/03 04:33:42;;;;;;;111.07;71.23;;;18.00;99.90;;;;;;5016432;28;20664;-80
2023/09/03 04:36:09;;;;;;;110.50;68.87;;;17.90;99.90;;;;;;5033753;28;20169;-80
2023/09/03 04:38:35;;;;;;;108.87;61.63;;;17.90;99.90;;;;;;5033615;28;20165;-80
2023/09/03 04:41:04;;;;;;;114.93;80.50;;;17.80;99.90;;;;;;5033862;28;20493;-80
2023/09/03 04:43:32;;;;;;;120.47;84.37;;;17.80;99.90;;;;;;5033438;28;20203;-80
2023/09/03 04:45:58;;;;;;;115.27;77.77;;;17.80;99.90;;;;;;5033479;28;20452;-80
2023/09/03 04:48:23;;;;;;;111.33;70.37;;;17.80;99.90;;;;;;5033993;28;20902;-80
2023/09/03 04:50:49;;;;;;;115.53;81.23;;;17.80;99.90;;;;;;5033483;28;20557;-80
2023/09/03 04:53:15;;;;;;;110.43;71.37;;;17.80;99.90;;;;;;5016007;28;20222;-80
2023/09/03 04:55:41;;;;;;;116.27;83.80;;;17.80;99.90;;;;;;5033587;28;20169;-80
2023/09/03 04:58:07;;;;;;;108.90;72.90;;;17.80;99.90;;;;;;5033671;28;20507;-80
2023/09/03 05:00:33;;;;;;;116.57;79.60;;;17.90;99.90;;;;;;5033447;28;20424;-80
2023/09/03 05:02:59;;;;;;;110.63;78.13;;;17.90;99.90;;;;;;5033864;28;20737;-80
2023/09/03 05:05:25;;;;;;;108.13;70.37;;;17.80;99.90;;;;;;5033283;28;20466;-80
2023/09/03 05:07:51;;;;;;;111.50;74.77;;;17.80;99.90;;;;;;5033524;28;20400;-80
2023/09/03 05:10:18;;;;;;;108.13;73.70;;;17.80;99.90;;;;;;5015798;28;20428;-80
2023/09/03 05:12:43;;;;;;;109.00;71.63;;;17.80;99.90;;;;;;5033772;28;20914;-80
2023/09/03 05:15:10;;;;;;;111.57;79.93;;;17.70;99.90;;;;;;5015625;28;20491;-80
2023/09/03 05:17:36;;;;;;;112.37;75.13;;;17.70;99.90;;;;;;5033698;28;20189;-80
2023/09/03 05:20:03;;;;;;;106.87;75.97;;;17.70;99.90;;;;;;5033509;28;20454;-80
2023/09/03 05:22:28;;;;;;;109.67;74.87;;;17.70;99.90;;;;;;5033123;28;20495;-80
2023/09/03 05:24:57;;;;;;;113.80;79.20;;;17.80;99.90;;;;;;5033238;28;20446;-80
2023/09/03 05:27:23;;;;;;;107.40;65.93;;;17.70;99.90;;;;;;5033489;28;20208;-80
2023/09/03 05:29:48;;;;;;;110.73;76.57;;;17.70;99.90;;;;;;5033242;28;20420;-80
2023/09/03 05:32:14;;;;;;;109.20;74.57;;;17.70;99.90;;;;;;5015459;28;20175;-80
2023/09/03 05:34:40;;;;;;;106.80;71.27;;;17.80;99.90;;;;;;5033121;28;20188;-80
2023/09/03 05:37:05;;;;;;;108.10;74.70;;;17.80;99.90;;;;;;5015455;28;20180;-80
2023/09/03 05:39:31;;;;;;;109.17;72.27;;;17.70;99.90;;;;;;5033210;28;20185;-80
2023/09/03 05:41:57;;;;;;;109.27;69.97;;;17.80;99.90;;;;;;5035529;28;20196;-80
2023/09/03 05:44:23;;;;;;;108.93;70.67;;;17.80;99.90;;;;;;5036684;28;20611;-80
2023/09/03 05:46:49;;;;;;;104.77;66.20;;;17.80;99.90;;;;;;5037109;28;20200;-80
2023/09/03 05:49:15;;;;;;;105.70;64.83;;;17.80;99.90;;;;;;5036540;28;20778;-80
2023/09/03 05:51:40;;;;;;;100.57;60.03;;;17.90;99.90;;;;;;5037199;28;20468;-80
2023/09/03 05:54:07;;;;;;;106.90;79.07;;;17.90;99.90;;;;;;5037357;28;20165;-80
2023/09/03 05:56:35;;;;;;;106.23;69.17;;;18.00;99.90;;;;;;5036710;28;20500;-80
2023/09/03 05:59:05;;;;;;;105.53;68.90;;;18.00;99.90;;;;;;5036668;28;20920;-80
2023/09/03 06:01:31;;;;;;;105.93;63.07;;;18.00;99.90;;;;;;5036427;28;20470;-80
2023/09/03 06:03:58;;;;;;;105.53;58.07;;;18.00;99.90;;;;;;5019796;28;20419;-80
2023/09/03 06:06:24;;;;;;;106.07;57.77;;;18.10;99.90;;;;;;5036618;28;20447;-80
2023/09/03 06:08:50;;;;;;;109.00;56.23;;;18.10;99.90;;;;;;5036261;28;20764;-80
2023/09/03 06:11:15;;;;;;;107.57;55.13;;;18.20;99.90;;;;;;5036387;28;20212;-80
2023/09/03 06:13:41;;;;;;;118.27;57.87;;;18.20;99.90;;;;;;5036297;28;20165;-80
2023/09/03 06:16:07;;;;;;;110.70;56.50;;;18.20;99.90;;;;;;5036340;28;20170;-80
2023/09/03 06:18:32;;;;;;;110.97;55.80;;;18.20;99.90;;;;;;5036428;28;20161;-80
2023/09/03 06:20:58;;;;;;;112.67;54.27;;;18.20;99.90;;;;;;5036735;28;20216;-80
2023/09/03 06:23:24;;;;;;;112.07;48.33;;;18.20;99.90;;;;;;5036142;28;20229;-80
2023/09/03 06:25:50;;;;;;;118.83;51.10;;;18.30;99.90;;;;;;5036596;28;20331;-80
2023/09/03 06:28:16;;;;;;;113.73;47.00;;;18.30;99.90;;;;;;5036174;28;20410;-80
2023/09/03 06:30:42;;;;;;;109.30;46.23;;;18.30;99.90;;;;;;5036034;28;20874;-80
2023/09/03 06:33:09;;;;;;;112.27;47.67;;;18.30;99.90;;;;;;5018277;28;20541;-80
2023/09/03 06:35:35;;;;;;;113.80;47.93;;;18.40;99.90;;;;;;5036158;28;20169;-80
2023/09/03 06:38:00;;;;;;;120.13;49.13;;;18.40;99.90;;;;;;5035831;28;20453;-80
2023/09/03 06:40:27;;;;;;;112.20;44.30;;;18.50;99.90;;;;;;5035641;28;20193;-80
2023/09/03 06:42:53;;;;;;;114.57;45.10;;;18.40;99.90;;;;;;5035893;28;20193;-80
2023/09/03 06:45:18;;;;;;;111.87;48.20;;;18.40;99.90;;;;;;5107458;23;20483;-82
2023/09/03 06:47:45;;;;;;;110.17;42.63;;;18.40;99.90;;;;;;5036019;28;20423;-81
2023/09/03 06:50:11;;;;;;;113.23;46.77;;;18.50;99.90;;;;;;5036008;28;20412;-82
2023/09/03 06:52:37;;;;;;;115.20;46.43;;;18.50;99.90;;;;;;5017219;28;20412;-81
2023/09/03 06:55:04;;;;;;;108.53;43.30;;;18.50;99.90;;;;;;5035436;28;20392;-81
2023/09/03 06:57:32;;;;;;;111.47;46.43;;;18.40;99.90;;;;;;5035957;28;20158;-81
2023/09/03 06:59:58;;;;;;;119.53;50.10;;;18.50;99.90;;;;;;5035922;28;20550;-81
2023/09/03 07:02:25;;;;;;;113.77;48.33;;;18.50;99.90;;;;;;5018123;28;20935;-82
2023/09/03 07:04:50;;;;;;;116.47;49.73;;;18.50;99.90;;;;;;5035746;28;20428;-81
2023/09/03 07:07:16;;;;;;;112.83;46.97;;;18.40;99.90;;;;;;5035700;28;20538;-82
2023/09/03 07:09:42;;;;;;;109.50;42.10;;;18.40;99.90;;;;;;5035229;28;20173;-81
2023/09/03 07:12:07;;;;;;;111.03;43.57;;;18.40;99.90;;;;;;5035473;28;20197;-81
2023/09/03 07:14:34;;;;;;;125.03;43.93;;;18.40;99.90;;;;;;5035684;28;20169;-81
2023/09/03 07:17:01;;;;;;;109.53;40.07;;;18.40;99.90;;;;;;5035416;28;20169;-81
2023/09/03 07:19:27;;;;;;;105.00;44.07;;;18.40;99.90;;;;;;5035129;28;20425;-82
2023/09/03 07:21:53;;;;;;;103.60;41.63;;;18.50;99.90;;;;;;5035200;28;20404;-82
2023/09/03 07:24:19;;;;;;;108.20;43.03;;;18.50;99.90;;;;;;5035301;28;20490;-81
2023/09/03 07:26:44;;;;;;;105.50;46.47;;;18.40;99.90;;;;;;5035002;28;20834;-82
2023/09/03 07:29:12;;;;;;;101.07;39.17;;;18.30;99.90;;;;;;5034867;28;20215;-80
2023/09/03 07:31:41;;;;;;;101.90;43.60;;;18.50;99.90;;;;;;5035202;28;20173;-81
2023/09/03 07:34:13;;;;;;;104.53;41.57;;;18.60;99.90;;;;;;5034942;28;20426;-82
2023/09/03 07:36:39;;;;;;;105.40;44.80;;;18.80;99.90;;;;;;5017183;28;20419;-81
2023/09/03 07:39:09;;;;;;;103.70;40.90;;;18.50;99.90;;;;;;5035025;28;20411;-81
2023/09/03 07:41:35;;;;;;;109.30;47.37;;;18.60;99.90;;;;;;5035147;28;20687;-81
2023/09/03 07:44:00;;;;;;;106.03;48.83;;;18.70;99.90;;;;;;5017180;28;20451;-83
2023/09/03 07:46:26;;;;;;;104.77;48.13;;;18.80;99.90;;;;;;5035220;28;20449;-81
2023/09/03 07:48:52;;;;;;;110.60;51.17;;;18.80;99.90;;;;;;5017966;28;20177;-82
2023/09/03 07:51:19;;;;;;;106.50;48.13;;;18.80;99.90;;;;;;5035809;28;20541;-83
2023/09/03 07:53:48;;;;;;;111.10;54.07;;;18.70;99.90;;;;;;5017918;28;20828;-83
2023/09/03 07:56:17;;;;;;;109.27;48.20;;;18.80;99.90;;;;;;5036113;28;21135;-83
2023/09/03 07:58:43;;;;;;;104.73;43.63;;;18.70;99.90;;;;;;5018724;28;20516;-83
2023/09/03 08:01:14;;;;;;;108.00;44.40;;;18.50;99.90;;;;;;5035813;28;20487;-83
2023/09/03 08:03:41;;;;;;;106.97;50.67;;;18.50;99.90;;;;;;5036145;28;20393;-82
2023/09/03 08:06:07;;;;;;;106.17;48.40;;;18.60;99.90;;;;;;5036368;28;20444;-83
2023/09/03 08:08:34;;;;;;;100.30;45.23;;;18.70;99.90;;;;;;5036127;28;20932;-82
2023/09/03 08:11:00;;;;;;;102.97;46.57;;;18.80;99.90;;;;;;5036004;28;20419;-83
2023/09/03 08:13:26;;;;;;;108.90;52.47;;;18.90;99.90;;;;;;5036238;28;20392;-83
2023/09/03 08:15:52;;;;;;;102.70;49.10;;;18.90;99.90;;;;;;5100033;23;20488;-82
2023/09/03 08:18:21;;;;;;;105.93;52.13;;;18.90;99.90;;;;;;5224251;23;20484;-83
2023/09/03 08:23:15;;;;;;;104.73;51.83;;;19.00;99.90;;;;;;5063234;28;20509;-82
2023/09/03 08:25:43;;;;;;;102.17;50.70;;;18.90;99.90;;;;;;5064829;28;20446;-82
2023/09/03 08:28:09;;;;;;;102.77;51.43;;;18.90;99.90;;;;;;5029381;28;20689;-82
2023/09/03 08:30:36;;;;;;;105.00;55.23;;;19.00;99.90;;;;;;5063986;28;20419;-82
2023/09/03 08:33:01;;;;;;;105.13;56.13;;;19.10;99.90;;;;;;5064444;28;20504;-82
2023/09/03 08:35:28;;;;;;;104.57;54.13;;;19.10;99.90;;;;;;5063977;28;20401;-82
2023/09/03 08:37:53;;;;;;;105.03;60.13;;;19.30;99.90;;;;;;5064866;28;20168;-82
2023/09/03 08:40:19;;;;;;;103.70;55.80;;;19.20;99.90;;;;;;5064526;28;20415;-82
2023/09/03 08:42:49;;;;;;;104.50;64.00;;;19.30;99.90;;;;;;5063843;28;20160;-82
2023/09/03 08:45:18;;;;;;;106.73;66.37;;;19.30;99.90;;;;;;5046293;28;20500;-82
2023/09/03 08:47:45;;;;;;;103.60;59.43;;;19.30;99.90;;;;;;5063528;28;20404;-82
2023/09/03 08:50:12;;;;;;;109.33;65.63;;;19.30;99.90;;;;;;5063953;28;20423;-82
2023/09/03 08:52:39;;;;;;;110.47;66.57;;;19.30;99.90;;;;;;5064351;28;20408;-82
2023/09/03 08:55:06;;;;;;;110.57;66.57;;;19.30;99.90;;;;;;5064973;28;20426;-82
2023/09/03 08:57:34;;;;;;;109.00;68.07;;;19.20;99.90;;;;;;5062212;28;20451;-82
2023/09/03 09:00:05;;;;;;;103.83;64.40;;;19.30;99.90;;;;;;5038275;28;20485;-82
2023/09/03 09:02:32;;;;;;;106.93;69.13;;;19.40;99.90;;;;;;5023374;28;20927;-82
2023/09/03 09:05:06;;;;;;;110.00;68.23;;;19.60;99.90;;;;;;5059903;28;20413;-82
2023/09/03 09:07:32;;;;;;;107.83;69.13;;;19.60;99.90;;;;;;5061943;28;20443;-82
2023/09/03 09:10:03;;;;;;;108.97;63.70;;;19.80;99.90;;;;;;5060657;28;20823;-83
2023/09/03 09:12:32;;;;;;;108.37;66.97;;;19.90;99.90;;;;;;5063910;28;20471;-83
2023/09/03 09:15:03;;;;;;;112.20;73.60;;;20.00;99.90;;;;;;5046491;28;20460;-82
2023/09/03 09:17:39;;;;;;;117.50;83.87;;;20.00;99.90;;;;;;5066863;28;20399;-83
2023/09/03 09:20:10;;;;;;;119.57;97.63;;;20.30;99.90;;;;;;5070216;28;20422;-83
2023/09/03 09:22:43;;;;;;;125.90;100.17;;;20.10;99.90;;;;;;5049939;28;20432;-83
2023/09/03 09:25:17;;;;;;;136.93;117.97;;;20.10;99.90;;;;;;5067730;28;20383;-83
2023/09/03 09:27:44;;;;;;;155.97;140.97;;;20.10;99.90;;;;;;5067164;28;20377;-83
2023/09/03 09:30:14;;;;;;;121.60;88.03;;;20.20;99.90;;;;;;5069041;28;20416;-83
2023/09/03 09:32:42;;;;;;;126.33;99.93;;;20.00;99.90;;;;;;5066670;28;20394;-83
2023/09/03 09:35:08;;;;;;;134.47;117.67;;;20.20;99.90;;;;;;5065945;28;20458;-83
2023/09/03 09:37:41;;;;;;;163.27;147.83;;;20.30;99.90;;;;;;5066009;28;20414;-83
2023/09/03 09:40:12;;;;;;;131.37;117.37;;;20.20;99.90;;;;;;5066441;28;20509;-83
2023/09/03 09:43:01;;;;;;;150.63;135.43;;;20.20;99.90;;;;;;5049412;28;20395;-83
2023/09/03 09:45:27;;;;;;;181.90;165.93;;;20.30;99.90;;;;;;5066561;28;20417;-83
2023/09/03 09:48:02;;;;;;;172.50;157.07;;;20.50;99.90;;;;;;5049466;28;20411;-83
2023/09/03 09:50:42;;;;;;;172.00;156.23;;;20.50;99.90;;;;;;5048462;28;20431;-83
2023/09/03 09:53:25;;;;;;;175.23;159.87;;;20.40;99.90;;;;;;5047454;28;20488;-83
2023/09/03 09:55:58;;;;;;;158.00;142.57;;;20.60;99.90;;;;;;5047153;28;20415;-83
2023/09/03 09:58:35;;;;;;;152.77;138.03;;;20.40;99.90;;;;;;5066167;28;20407;-83
2023/09/03 10:01:00;;;;;;;171.53;156.23;;;20.40;99.90;;;;;;5064859;28;20406;-83
2023/09/03 10:03:39;;;;;;;150.40;135.83;;;20.50;99.90;;;;;;5067625;28;20405;-83
2023/09/03 10:06:06;;;;;;;156.73;141.87;;;20.50;99.90;;;;;;5063335;28;20183;-83
2023/09/03 10:08:32;;;;;;;169.47;154.07;;;20.70;99.90;;;;;;5063343;28;20450;-83
2023/09/03 10:10:58;;;;;;;184.67;168.80;;;20.80;99.90;;;;;;5064108;28;20446;-83
2023/09/03 10:13:24;;;;;;;152.07;137.60;;;21.00;99.90;;;;;;5045224;28;20919;-82
2023/09/03 10:15:50;;;;;;;168.37;153.17;;;21.10;99.90;;;;;;5063073;28;20179;-82
2023/09/03 10:18:17;;;;;;;152.67;138.47;;;21.20;99.90;;;;;;5062808;28;20169;-82
2023/09/03 10:20:44;;;;;;;116.70;102.27;;;21.50;99.90;;;;;;5061873;28;20458;-82
2023/09/03 10:23:11;;;;;;;96.27;38.27;;;21.80;99.90;;;;;;5062569;28;20799;-82
2023/09/03 10:25:37;;;;;;;91.30;33.63;;;22.10;99.90;;;;;;5062674;28;20446;-82
2023/09/03 10:28:06;;;;;;;91.57;30.10;;;22.00;99.90;;;;;;5043922;28;20408;-83
2023/09/03 10:30:39;;;;;;;89.30;30.30;;;22.20;99.90;;;;;;5061631;28;20419;-82
2023/09/03 10:33:07;;;;;;;85.67;23.53;;;22.50;99.90;;;;;;5061885;28;20771;-82
2023/09/03 10:35:33;;;;;;;87.43;23.00;;;22.70;97.60;;;;;;5042406;28;20410;-81
2023/09/03 10:37:59;;;;;;;88.63;23.27;;;22.90;95.60;;;;;;5058338;28;20438;-81
2023/09/03 10:40:27;;;;;;;84.87;22.63;;;23.00;95.40;;;;;;5059915;28;20196;-81
2023/09/03 10:43:18;;;;;;;86.33;21.33;;;23.40;96.90;;;;;;5058604;28;20161;-81
2023/09/03 10:46:04;;;;;;;83.60;20.30;;;23.50;76.60;;;;;;5037718;28;21009;-81
2023/09/03 10:48:30;;;;;;;82.30;18.00;;;23.40;54.20;;;;;;5040354;28;20399;-81
2023/09/03 10:50:56;;;;;;;80.97;18.63;;;23.40;60.70;;;;;;5057545;28;20506;-81
2023/09/03 10:53:40;;;;;;;81.97;20.70;;;23.60;49.40;;;;;;5060136;28;20168;-82
2023/09/03 10:56:18;;;;;;;81.77;23.00;;;23.50;15.00;;;;;;5059864;28;20193;-82
2023/09/03 10:58:53;;;;;;;79.97;19.07;;;23.70;32.00;;;;;;5043730;28;20445;-82
2023/09/03 11:01:19;;;;;;;85.37;21.30;;;24.10;44.40;;;;;;5060818;28;20414;-83
2023/09/03 11:03:49;;;;;;;80.83;20.83;;;24.40;5.60;;;;;;5060092;28;20407;-83
2023/09/03 11:06:20;;;;;;;79.27;18.20;;;24.40;34.40;;;;;;5042639;28;20170;-82
2023/09/03 11:09:06;;;;;;;75.90;14.80;;;24.60;3.20;;;;;;5061498;28;20467;-82
2023/09/03 11:11:36;;;;;;;77.33;16.80;;;24.50;1.00;;;;;;5060815;28;20426;-82
2023/09/03 11:14:03;;;;;;;75.90;13.47;;;24.30;1.00;;;;;;5042071;28;20395;-82
2023/09/03 11:16:33;;;;;;;78.07;19.93;;;24.60;1.00;;;;;;5059725;28;20439;-82
2023/09/03 11:19:03;;;;;;;75.70;11.77;;;24.80;1.00;;;;;;5041608;28;20408;-83
2023/09/03 11:21:28;;;;;;;77.97;9.57;;;24.90;1.00;;;;;;5058976;28;20446;-82
2023/09/03 11:24:01;;;;;;;73.97;7.87;;;25.00;1.00;;;;;;5059914;28;20485;-81
2023/09/03 11:26:27;;;;;;;73.93;10.10;;;24.60;1.00;;;;;;5059678;28;20666;-82
2023/09/03 11:29:00;;;;;;;71.90;5.90;;;24.80;1.00;;;;;;5041815;28;20422;-82
2023/09/03 11:31:26;;;;;;;72.20;6.07;;;24.60;1.00;;;;;;5040843;28;20511;-82
2023/09/03 11:33:52;;;;;;;72.80;6.33;;;25.00;1.00;;;;;;5058684;28;20915;-82
2023/09/03 11:36:21;;;;;;;72.00;6.73;;;25.30;1.00;;;;;;5058372;28;20445;-82
2023/09/03 11:38:50;;;;;;;73.53;6.73;;;25.60;1.00;;;;;;5041290;28;20433;-80
2023/09/03 11:41:18;;;;;;;72.27;7.43;;;25.90;1.00;;;;;;5059390;28;20422;-80
2023/09/03 11:43:44;;;;;;;71.60;6.97;;;25.80;1.00;;;;;;5058613;28;20440;-80
2023/09/03 11:46:15;;;;;;;72.20;6.87;;;25.90;1.00;;;;;;5040708;28;20426;-80
2023/09/03 11:48:46;;;;;;;71.97;8.27;;;26.30;1.00;;;;;;5043135;28;20399;-81
2023/09/03 11:51:20;;;;;;;73.30;10.37;;;25.70;1.00;;;;;;5059942;28;20450;-82
2023/09/03 11:53:48;;;;;;;72.50;9.87;;;25.60;1.00;;;;;;5040149;28;20418;-82
2023/09/03 11:56:17;;;;;;;73.03;8.30;;;25.60;1.00;;;;;;5057798;28;20446;-82
2023/09/03 11:58:45;;;;;;;72.40;9.30;;;25.70;1.00;;;;;;5058245;28;20391;-82
2023/09/03 12:01:13;;;;;;;72.93;8.73;;;25.90;1.00;;;;;;5057889;28;20834;-82
2023/09/03 12:03:38;;;;;;;72.77;8.60;;;26.20;1.00;;;;;;5040461;28;20457;-82
2023/09/03 12:06:04;;;;;;;71.87;7.07;;;26.40;1.00;;;;;;5058056;28;20403;-82
2023/09/03 12:08:32;;;;;;;71.93;6.17;;;26.70;1.00;;;;;;5058600;28;20228;-82
2023/09/03 12:10:58;;;;;;;71.20;6.30;;;26.70;1.00;;;;;;5058701;28;20188;-82
2023/09/03 12:13:34;;;;;;;70.50;5.63;;;26.50;1.00;;;;;;5040342;28;20409;-82
2023/09/03 12:16:15;;;;;;;70.50;6.63;;;26.40;1.00;;;;;;5058299;28;20476;-82
2023/09/03 12:19:00;;;;;;;71.00;6.30;;;26.60;1.00;;;;;;5057988;28;20376;-83
2023/09/03 12:21:33;;;;;;;70.20;6.50;;;26.70;1.00;;;;;;5058014;28;20431;-82
2023/09/03 12:24:00;;;;;;;72.30;8.20;;;26.40;1.00;;;;;;5060330;28;20403;-82
2023/09/03 12:26:26;;;;;;;71.97;8.27;;;26.60;1.00;;;;;;5060690;28;20411;-83